Time;durP1;ratioP1;P1;durP2;ratioP2;P2;SDS_P1;SDS_P2;PMS_P1;PMS_P2;Temp;Humidity;BMP_temperature;BMP_pressure;BME280_temperature;BME280_humidity;BME280_pressure;Samples;Min_cycle;Max_cycle;Signal;HPM_P1;HPM_P2
2021/11/06 00:02:05;;;;;;;49.35;20.10;;;2.80;83.50;;;;;;5078603;28;20037;-69
2021/11/06 00:04:31;;;;;;;48.15;20.00;;;2.80;83.60;;;;;;5078473;28;20089;-71
2021/11/06 00:06:56;;;;;;;41.00;17.30;;;2.80;83.60;;;;;;5077757;28;20029;-73
2021/11/06 00:09:22;;;;;;;31.85;15.45;;;2.70;83.60;;;;;;5078498;28;20103;-70
2021/11/06 00:11:48;;;;;;;27.33;13.18;;;2.70;83.60;;;;;;5079121;28;20032;-71
2021/11/06 00:14:14;;;;;;;23.75;11.75;;;2.70;83.60;;;;;;5078247;28;20090;-70
2021/11/06 00:16:40;;;;;;;21.33;10.90;;;2.70;83.60;;;;;;5078725;28;20033;-70
2021/11/06 00:19:05;;;;;;;21.13;10.32;;;2.60;83.50;;;;;;5078345;28;20020;-70
2021/11/06 00:21:31;;;;;;;18.63;10.05;;;2.60;83.50;;;;;;5078830;28;20024;-70
2021/11/06 00:23:57;;;;;;;15.57;8.65;;;2.60;83.60;;;;;;5078136;28;20020;-71
2021/11/06 00:26:23;;;;;;;10.75;7.60;;;2.60;83.60;;;;;;5078055;28;20028;-70
2021/11/06 00:28:49;;;;;;;13.23;8.52;;;2.60;83.70;;;;;;5078361;28;20024;-70
2021/11/06 00:31:14;;;;;;;13.52;8.70;;;2.60;83.60;;;;;;5078377;28;20170;-70
2021/11/06 00:33:40;;;;;;;14.07;8.82;;;2.60;83.70;;;;;;5073739;28;20024;-71
2021/11/06 00:36:06;;;;;;;12.05;8.43;;;2.50;83.70;;;;;;5077764;28;20056;-71
2021/11/06 00:38:32;;;;;;;16.05;8.50;;;2.50;83.60;;;;;;5078485;28;20066;-72
2021/11/06 00:40:58;;;;;;;11.93;8.90;;;2.50;83.70;;;;;;5077703;28;20032;-72
2021/11/06 00:43:23;;;;;;;14.75;8.98;;;2.50;83.70;;;;;;5076218;28;20025;-71
2021/11/06 00:45:49;;;;;;;12.23;8.18;;;2.50;83.80;;;;;;5077257;28;20156;-72
2021/11/06 00:48:15;;;;;;;11.32;7.82;;;2.50;83.90;;;;;;5078158;28;20491;-71
2021/11/06 00:50:41;;;;;;;14.38;8.50;;;2.40;83.80;;;;;;5072148;28;20016;-72
2021/11/06 00:53:07;;;;;;;16.58;9.48;;;2.40;83.80;;;;;;5076094;28;20174;-71
2021/11/06 00:55:33;;;;;;;14.15;9.43;;;2.40;83.80;;;;;;5075751;28;20052;-71
2021/11/06 00:57:59;;;;;;;14.98;9.55;;;2.40;83.80;;;;;;5078047;28;20025;-71
2021/11/06 01:00:24;;;;;;;15.55;9.98;;;2.40;83.80;;;;;;5077052;28;20020;-71
2021/11/06 01:02:50;;;;;;;14.15;9.23;;;2.40;83.80;;;;;;5074704;28;20399;-71
2021/11/06 01:05:18;;;;;;;16.02;9.70;;;2.30;83.70;;;;;;5072892;28;20025;-71
2021/11/06 01:07:44;;;;;;;20.60;10.43;;;2.30;83.90;;;;;;5071259;28;20021;-71
2021/11/06 01:10:12;;;;;;;17.15;9.77;;;2.30;83.90;;;;;;5070937;28;20569;-71
2021/11/06 01:12:38;;;;;;;17.77;10.40;;;2.30;83.90;;;;;;5070599;28;20024;-71
2021/11/06 01:15:06;;;;;;;17.05;10.18;;;2.30;83.90;;;;;;5073673;28;20030;-71
2021/11/06 01:17:32;;;;;;;17.40;10.15;;;2.30;84.00;;;;;;5077367;28;20020;-71
2021/11/06 01:19:58;;;;;;;15.35;9.45;;;2.20;84.00;;;;;;5076261;28;20039;-71
2021/11/06 01:22:24;;;;;;;15.60;9.77;;;2.20;84.10;;;;;;5077281;28;20024;-71
2021/11/06 01:24:49;;;;;;;16.60;10.07;;;2.20;84.10;;;;;;5076151;28;20024;-71
2021/11/06 01:27:15;;;;;;;16.27;9.52;;;2.10;84.00;;;;;;5077077;28;20097;-71
2021/11/06 01:29:41;;;;;;;18.13;9.50;;;2.20;83.90;;;;;;5076858;28;20033;-71
2021/11/06 01:32:08;;;;;;;14.70;10.00;;;2.10;83.90;;;;;;5077148;28;20028;-71
2021/11/06 01:34:35;;;;;;;19.73;10.82;;;2.10;84.00;;;;;;5076452;28;20449;-71
2021/11/06 01:37:01;;;;;;;24.75;12.40;;;2.10;84.00;;;;;;5076180;28;21370;-71
2021/11/06 01:39:27;;;;;;;25.05;12.18;;;2.10;84.00;;;;;;5076560;28;20392;-71
2021/11/06 01:41:53;;;;;;;25.83;12.43;;;2.10;84.00;;;;;;5076948;28;20029;-71
2021/11/06 01:44:19;;;;;;;28.50;13.82;;;2.10;84.00;;;;;;5076550;28;20029;-71
2021/11/06 01:46:45;;;;;;;24.63;13.32;;;2.10;84.30;;;;;;5068439;28;20024;-71
2021/11/06 01:49:10;;;;;;;22.77;13.00;;;2.10;84.10;;;;;;5075485;28;20455;-71
2021/11/06 01:51:36;;;;;;;22.30;13.95;;;2.10;84.00;;;;;;5076781;28;20142;-71
2021/11/06 01:54:03;;;;;;;26.98;12.82;;;2.10;84.10;;;;;;5076891;28;20103;-72
2021/11/06 01:56:29;;;;;;;22.40;11.82;;;2.00;84.10;;;;;;5076871;28;20017;-71
2021/11/06 01:58:55;;;;;;;24.73;11.52;;;2.00;84.00;;;;;;5076828;28;20063;-71
2021/11/06 02:01:21;;;;;;;22.63;12.48;;;2.00;84.10;;;;;;5076042;28;20034;-71
2021/11/06 02:03:48;;;;;;;21.30;11.25;;;2.00;84.10;;;;;;5076537;28;20390;-71
2021/11/06 02:06:14;;;;;;;18.73;11.75;;;2.00;84.90;;;;;;5076153;28;20387;-71
2021/11/06 02:08:40;;;;;;;22.58;11.45;;;1.90;84.20;;;;;;5076691;28;20024;-71
2021/11/06 02:11:07;;;;;;;25.10;12.55;;;1.90;84.30;;;;;;5076930;28;20028;-71
2021/11/06 02:13:33;;;;;;;24.70;13.38;;;2.00;84.50;;;;;;5076895;28;20056;-71
2021/11/06 02:15:59;;;;;;;30.13;13.57;;;1.90;84.50;;;;;;5076733;28;20410;-70
2021/11/06 02:18:25;;;;;;;29.42;15.13;;;1.90;84.50;;;;;;5076682;28;20060;-71
2021/11/06 02:21:03;;;;;;;32.72;14.45;;;1.90;84.50;;;;;;5076330;28;20481;-71
2021/11/06 02:23:37;;;;;;;27.92;13.80;;;1.80;84.50;;;;;;5076407;28;20021;-71
2021/11/06 02:26:03;;;;;;;29.00;13.77;;;1.80;84.40;;;;;;5076534;28;20028;-71
2021/11/06 02:28:30;;;;;;;25.48;12.68;;;1.80;84.50;;;;;;5076279;28;20054;-71
2021/11/06 02:30:56;;;;;;;23.70;11.80;;;1.80;84.50;;;;;;5076200;28;20032;-71
2021/11/06 02:33:22;;;;;;;23.77;12.80;;;1.90;84.50;;;;;;5075417;28;20028;-70
2021/11/06 02:35:48;;;;;;;27.38;13.40;;;1.90;84.60;;;;;;5075846;28;20087;-71
2021/11/06 02:38:14;;;;;;;29.02;12.63;;;1.90;84.80;;;;;;5076778;28;20028;-70
2021/11/06 02:40:40;;;;;;;32.65;15.20;;;1.90;85.50;;;;;;5076078;28;20043;-71
2021/11/06 02:43:06;;;;;;;36.90;17.13;;;1.90;85.10;;;;;;5076623;28;20024;-71
2021/11/06 02:45:33;;;;;;;39.00;17.70;;;2.00;85.10;;;;;;5076343;28;20032;-71
2021/11/06 02:47:59;;;;;;;34.53;15.52;;;2.00;85.10;;;;;;5076606;28;20033;-71
2021/11/06 02:50:25;;;;;;;31.55;15.57;;;2.00;85.10;;;;;;5075256;28;20017;-71
2021/11/06 02:52:51;;;;;;;28.00;14.32;;;2.00;85.00;;;;;;5075712;28;20094;-71
2021/11/06 02:55:18;;;;;;;25.42;12.38;;;2.00;84.90;;;;;;5076096;28;20032;-71
2021/11/06 02:57:44;;;;;;;22.50;12.27;;;2.00;84.90;;;;;;5076409;28;20475;-71
2021/11/06 03:00:10;;;;;;;22.10;11.63;;;1.90;84.80;;;;;;5076027;28;20080;-71
2021/11/06 03:02:37;;;;;;;18.02;9.57;;;1.90;84.80;;;;;;5075253;28;20026;-71
2021/11/06 03:05:08;;;;;;;18.65;9.43;;;1.90;84.70;;;;;;5076298;28;20028;-71
2021/11/06 03:07:34;;;;;;;17.17;10.75;;;1.90;84.70;;;;;;5077516;28;20051;-70
2021/11/06 03:10:00;;;;;;;14.95;9.93;;;1.80;84.50;;;;;;5079766;28;20030;-71
2021/11/06 03:12:27;;;;;;;17.10;10.57;;;1.80;84.50;;;;;;5079418;28;20032;-71
2021/11/06 03:14:52;;;;;;;17.98;10.13;;;1.80;84.60;;;;;;5079520;28;20074;-71
2021/11/06 03:17:18;;;;;;;18.23;11.10;;;1.80;84.50;;;;;;5078918;28;20033;-71
2021/11/06 03:19:44;;;;;;;20.73;9.95;;;1.80;84.50;;;;;;5078489;28;20032;-71
2021/11/06 03:22:10;;;;;;;16.23;9.88;;;1.70;84.40;;;;;;5079092;28;20033;-71
2021/11/06 03:24:37;;;;;;;17.27;10.13;;;1.80;84.60;;;;;;5079509;28;20479;-71
2021/11/06 03:27:04;;;;;;;15.93;8.85;;;1.70;84.70;;;;;;5078063;28;20024;-71
2021/11/06 03:29:30;;;;;;;16.35;9.85;;;1.70;84.70;;;;;;5078890;28;20388;-71
2021/11/06 03:31:56;;;;;;;16.65;9.18;;;1.70;84.80;;;;;;5079192;28;20029;-71
2021/11/06 03:34:23;;;;;;;16.25;9.30;;;1.70;84.80;;;;;;5078956;28;20021;-71
2021/11/06 03:36:49;;;;;;;17.27;9.90;;;1.70;84.80;;;;;;5066172;28;20098;-71
2021/11/06 03:39:16;;;;;;;17.10;9.55;;;1.60;84.60;;;;;;5077867;28;20390;-71
2021/11/06 03:41:42;;;;;;;16.95;10.20;;;1.60;84.70;;;;;;5079077;28;20040;-71
2021/11/06 03:44:08;;;;;;;16.25;10.02;;;1.60;84.80;;;;;;5079044;28;20021;-71
2021/11/06 03:46:35;;;;;;;17.30;10.65;;;1.60;84.80;;;;;;5078997;28;20100;-71
2021/11/06 03:49:01;;;;;;;15.07;9.85;;;1.60;84.80;;;;;;5078970;28;20046;-71
2021/11/06 03:51:27;;;;;;;16.60;9.88;;;1.50;84.90;;;;;;5077390;28;20052;-71
2021/11/06 03:53:53;;;;;;;15.15;10.23;;;1.50;84.90;;;;;;5078583;28;20024;-71
2021/11/06 03:56:19;;;;;;;17.70;9.68;;;1.50;84.90;;;;;;5078246;28;20029;-71
2021/11/06 03:58:45;;;;;;;15.23;9.73;;;1.50;84.90;;;;;;5078442;28;20028;-71
2021/11/06 04:01:11;;;;;;;15.02;9.82;;;1.50;84.90;;;;;;5073936;28;20024;-71
2021/11/06 04:03:37;;;;;;;14.93;9.23;;;1.50;85.00;;;;;;5074526;28;20443;-71
2021/11/06 04:06:03;;;;;;;16.50;9.15;;;1.50;85.00;;;;;;5077164;28;20112;-71
2021/11/06 04:08:28;;;;;;;15.63;9.43;;;1.50;84.90;;;;;;5078670;28;20024;-71
2021/11/06 04:10:54;;;;;;;17.50;9.32;;;1.50;84.90;;;;;;5078560;28;20519;-71
2021/11/06 04:13:20;;;;;;;14.18;8.35;;;1.50;84.80;;;;;;5077450;28;20024;-71
2021/11/06 04:15:46;;;;;;;16.15;8.38;;;1.50;84.90;;;;;;5078818;28;20101;-71
2021/11/06 04:18:12;;;;;;;15.88;9.00;;;1.50;84.90;;;;;;5078128;28;20013;-71
2021/11/06 04:20:38;;;;;;;14.10;7.70;;;1.50;84.80;;;;;;5078289;28;20029;-71
2021/11/06 04:23:04;;;;;;;12.88;8.23;;;1.40;84.80;;;;;;5078708;28;20069;-72
2021/11/06 04:25:30;;;;;;;10.82;6.90;;;1.40;85.50;;;;;;5078479;28;20048;-71
2021/11/06 04:27:56;;;;;;;12.35;6.57;;;1.40;84.80;;;;;;5077950;28;20650;-71
2021/11/06 04:30:22;;;;;;;10.15;6.57;;;1.40;85.40;;;;;;5078271;28;20032;-71
2021/11/06 04:32:48;;;;;;;12.45;6.30;;;1.40;84.90;;;;;;5077466;28;20029;-71
2021/11/06 04:35:14;;;;;;;11.40;6.10;;;1.40;84.90;;;;;;5077907;28;20033;-72
2021/11/06 04:37:40;;;;;;;8.15;5.65;;;1.40;85.00;;;;;;5077409;28;20430;-71
2021/11/06 04:40:09;;;;;;;8.40;5.20;;;1.40;85.10;;;;;;5077877;28;20119;-71
2021/11/06 04:42:35;;;;;;;9.30;6.25;;;1.40;85.00;;;;;;5077966;28;20035;-71
2021/11/06 04:45:01;;;;;;;11.32;6.15;;;1.40;85.00;;;;;;5077824;28;20016;-71
2021/11/06 04:47:27;;;;;;;9.32;6.40;;;1.30;85.00;;;;;;5077599;28;20033;-71
2021/11/06 04:49:53;;;;;;;13.82;8.07;;;1.30;85.00;;;;;;5077893;28;20093;-72
2021/11/06 04:52:19;;;;;;;18.58;9.82;;;1.30;85.00;;;;;;5077925;28;20029;-71
2021/11/06 04:54:45;;;;;;;20.48;11.20;;;1.30;85.00;;;;;;5077088;28;20534;-71
2021/11/06 04:57:10;;;;;;;19.02;11.27;;;1.30;85.20;;;;;;5078035;28;20056;-71
2021/11/06 04:59:36;;;;;;;16.67;11.00;;;1.30;85.10;;;;;;5077653;28;20125;-71
2021/11/06 05:02:03;;;;;;;20.33;11.00;;;1.30;85.00;;;;;;5077052;28;20024;-71
2021/11/06 05:04:29;;;;;;;20.52;12.23;;;1.30;85.40;;;;;;5077402;28;20116;-71
2021/11/06 05:06:55;;;;;;;24.00;12.20;;;1.30;85.40;;;;;;5076888;28;20069;-71
2021/11/06 05:09:21;;;;;;;19.10;12.07;;;1.20;85.20;;;;;;5077936;28;20033;-71
2021/11/06 05:11:49;;;;;;;22.75;13.55;;;1.30;85.10;;;;;;5077707;28;20055;-71
2021/11/06 05:14:15;;;;;;;21.10;13.80;;;1.20;85.00;;;;;;5077483;28;21564;-71
2021/11/06 05:16:42;;;;;;;22.70;12.80;;;1.20;85.10;;;;;;5072180;28;20149;-71
2021/11/06 05:19:08;;;;;;;23.70;11.88;;;1.20;85.20;;;;;;5077578;28;20157;-71
2021/11/06 05:21:37;;;;;;;19.42;11.65;;;1.20;85.20;;;;;;5077095;28;20088;-71
2021/11/06 05:24:05;;;;;;;18.25;11.48;;;1.20;85.30;;;;;;5077036;28;20024;-71
2021/11/06 05:26:31;;;;;;;20.60;11.32;;;1.20;85.40;;;;;;5076979;28;20021;-71
2021/11/06 05:28:57;;;;;;;17.45;11.10;;;1.20;85.40;;;;;;5077542;28;20075;-71
2021/11/06 05:31:23;;;;;;;19.08;10.98;;;1.20;85.20;;;;;;5076173;28;20032;-71
2021/11/06 05:33:49;;;;;;;18.38;10.35;;;1.10;85.30;;;;;;5076563;28;20025;-71
2021/11/06 05:36:14;;;;;;;15.30;9.73;;;1.20;85.40;;;;;;5076599;28;20541;-71
2021/11/06 05:38:40;;;;;;;17.90;10.73;;;1.10;85.30;;;;;;5076530;28;20028;-71
2021/11/06 05:41:06;;;;;;;15.60;10.13;;;1.20;85.50;;;;;;5077025;28;20025;-71
2021/11/06 05:43:32;;;;;;;15.27;10.20;;;1.20;85.60;;;;;;5077454;28;20104;-71
2021/11/06 05:45:58;;;;;;;12.85;8.82;;;1.10;85.60;;;;;;5076909;28;20019;-71
2021/11/06 05:48:24;;;;;;;14.50;9.23;;;1.20;85.70;;;;;;5076865;28;20445;-71
2021/11/06 05:50:50;;;;;;;12.05;8.48;;;1.20;85.60;;;;;;5076450;28;20025;-71
2021/11/06 05:53:16;;;;;;;13.40;8.75;;;1.20;85.70;;;;;;5076934;28;20112;-71
2021/11/06 05:55:42;;;;;;;14.00;9.05;;;1.10;85.60;;;;;;5075948;28;20013;-71
2021/11/06 05:58:08;;;;;;;15.40;9.30;;;1.10;85.70;;;;;;5076413;28;20032;-71
2021/11/06 06:00:34;;;;;;;15.65;9.93;;;1.10;85.60;;;;;;5076159;28;20069;-71
2021/11/06 06:03:00;;;;;;;11.40;8.18;;;1.10;85.60;;;;;;5076862;28;20020;-71
2021/11/06 06:05:26;;;;;;;12.65;8.63;;;1.20;85.80;;;;;;5076822;28;20548;-71
2021/11/06 06:07:52;;;;;;;12.15;8.82;;;1.10;85.50;;;;;;5076528;28;20029;-71
2021/11/06 06:10:18;;;;;;;13.73;9.38;;;1.10;85.60;;;;;;5076160;28;20080;-71
2021/11/06 06:12:50;;;;;;;12.93;8.63;;;1.10;85.60;;;;;;5077226;28;20082;-71
2021/11/06 06:15:16;;;;;;;12.70;8.98;;;1.10;85.70;;;;;;5074963;28;20020;-71
2021/11/06 06:17:42;;;;;;;11.32;8.07;;;1.10;85.60;;;;;;5076870;28;20562;-71
2021/11/06 06:20:10;;;;;;;11.30;8.63;;;1.10;85.60;;;;;;5076785;28;20029;-71
2021/11/06 06:22:37;;;;;;;11.90;9.10;;;1.10;85.50;;;;;;5076930;28;20028;-71
2021/11/06 06:25:07;;;;;;;12.32;9.18;;;1.10;85.60;;;;;;5076481;28;20050;-71
2021/11/06 06:27:33;;;;;;;13.45;8.98;;;1.10;85.60;;;;;;5076501;28;20475;-71
2021/11/06 06:29:59;;;;;;;14.90;8.27;;;1.00;85.50;;;;;;5076508;28;20061;-71
2021/11/06 06:32:25;;;;;;;12.77;8.00;;;1.00;85.60;;;;;;5076598;28;20032;-71
2021/11/06 06:34:51;;;;;;;14.05;8.82;;;1.00;85.50;;;;;;5076621;28;20020;-71
2021/11/06 06:37:17;;;;;;;13.57;8.55;;;1.00;85.40;;;;;;5076215;28;20053;-71
2021/11/06 06:39:43;;;;;;;14.73;9.68;;;1.00;85.30;;;;;;5076678;28;20082;-71
2021/11/06 06:42:09;;;;;;;12.27;8.60;;;1.00;85.50;;;;;;5078770;28;20037;-71
2021/11/06 06:44:34;;;;;;;13.35;9.52;;;1.00;85.40;;;;;;5080479;28;20437;-71
2021/11/06 06:47:01;;;;;;;12.75;9.50;;;1.00;85.40;;;;;;5080458;28;20440;-71
2021/11/06 06:49:27;;;;;;;15.52;9.63;;;1.00;85.40;;;;;;5079977;28;20028;-71
2021/11/06 06:51:53;;;;;;;14.00;9.73;;;1.00;85.50;;;;;;5079467;28;20566;-71
2021/11/06 06:54:19;;;;;;;13.32;10.43;;;1.00;85.50;;;;;;5079125;28;20036;-71
2021/11/06 06:56:45;;;;;;;13.98;9.90;;;1.00;85.70;;;;;;5078095;28;20028;-71
2021/11/06 06:59:12;;;;;;;13.35;9.20;;;1.00;85.80;;;;;;5079493;28;20029;-71
2021/11/06 07:01:38;;;;;;;12.65;9.65;;;1.10;86.00;;;;;;5079172;28;20467;-71
2021/11/06 07:04:04;;;;;;;14.30;9.57;;;1.10;85.90;;;;;;5079503;28;20075;-71
2021/11/06 07:06:30;;;;;;;13.07;9.60;;;1.10;86.00;;;;;;5080439;28;20025;-71
2021/11/06 07:08:59;;;;;;;16.33;10.07;;;1.20;86.00;;;;;;5078738;28;20017;-71
2021/11/06 07:11:24;;;;;;;12.95;9.05;;;1.20;86.00;;;;;;5079649;28;20028;-71
2021/11/06 07:13:51;;;;;;;13.27;9.13;;;1.20;86.00;;;;;;5079944;28;20031;-71
2021/11/06 07:16:17;;;;;;;16.20;10.02;;;1.30;86.20;;;;;;5079733;28;20066;-71
2021/11/06 07:18:43;;;;;;;14.60;10.52;;;1.30;86.20;;;;;;5079694;28;20024;-71
2021/11/06 07:21:09;;;;;;;16.17;9.95;;;1.40;86.30;;;;;;5079012;28;20879;-71
2021/11/06 07:23:35;;;;;;;16.70;10.77;;;1.50;86.40;;;;;;5079596;28;20025;-71
2021/11/06 07:26:01;;;;;;;18.27;11.13;;;1.50;86.60;;;;;;5078793;28;20091;-71
2021/11/06 07:28:29;;;;;;;22.08;13.73;;;1.60;87.40;;;;;;5079558;28;20029;-71
2021/11/06 07:30:55;;;;;;;25.58;15.35;;;1.70;86.80;;;;;;5078988;28;20020;-71
2021/11/06 07:33:20;;;;;;;25.70;15.30;;;1.70;86.80;;;;;;5078979;28;20036;-71
2021/11/06 07:35:46;;;;;;;24.70;16.38;;;1.80;86.80;;;;;;5078860;28;20523;-71
2021/11/06 07:38:13;;;;;;;23.25;15.38;;;1.90;86.90;;;;;;5079077;28;20048;-71
2021/11/06 07:40:39;;;;;;;22.63;15.73;;;1.90;87.00;;;;;;5079090;28;20503;-71
2021/11/06 07:43:06;;;;;;;24.42;16.15;;;2.00;87.10;;;;;;5079487;28;20036;-71
2021/11/06 07:45:33;;;;;;;25.77;18.75;;;2.10;87.10;;;;;;5079679;28;20017;-71
2021/11/06 07:47:59;;;;;;;30.90;20.42;;;2.20;87.30;;;;;;5078946;28;20063;-71
2021/11/06 07:50:25;;;;;;;33.72;21.13;;;2.20;87.80;;;;;;5068130;28;20053;-71
2021/11/06 07:52:51;;;;;;;36.28;21.73;;;2.30;87.30;;;;;;5075992;28;20027;-71
2021/11/06 07:55:17;;;;;;;33.63;21.35;;;2.40;87.40;;;;;;5078696;28;20052;-71
2021/11/06 07:57:43;;;;;;;33.47;22.10;;;2.50;87.60;;;;;;5077728;28;20035;-71
2021/11/06 08:00:11;;;;;;;33.45;19.27;;;2.60;87.60;;;;;;5078443;28;20506;-71
2021/11/06 08:02:38;;;;;;;28.67;17.67;;;2.60;87.50;;;;;;5077926;28;20039;-71
2021/11/06 08:05:06;;;;;;;24.13;16.00;;;2.70;87.60;;;;;;5078762;28;20430;-71
2021/11/06 08:07:32;;;;;;;22.05;14.80;;;2.70;87.60;;;;;;5078986;28;20028;-71
2021/11/06 08:09:58;;;;;;;23.63;14.10;;;2.90;87.80;;;;;;5078913;28;20017;-71
2021/11/06 08:12:24;;;;;;;33.35;19.95;;;2.90;87.90;;;;;;5079097;28;20028;-71
2021/11/06 08:14:49;;;;;;;31.30;19.15;;;3.10;88.20;;;;;;5078518;28;20074;-71
2021/11/06 08:17:15;;;;;;;34.78;20.13;;;3.20;88.10;;;;;;5078504;28;20082;-71
2021/11/06 08:19:41;;;;;;;33.95;19.50;;;3.30;88.20;;;;;;5078798;28;20033;-71
2021/11/06 08:22:08;;;;;;;31.52;18.02;;;3.40;88.20;;;;;;5078481;28;20025;-71
2021/11/06 08:24:34;;;;;;;23.15;13.88;;;3.50;88.20;;;;;;5078343;28;20023;-71
2021/11/06 08:27:00;;;;;;;23.30;13.27;;;3.60;88.20;;;;;;5069002;28;20020;-71
2021/11/06 08:29:26;;;;;;;18.58;13.50;;;3.70;88.20;;;;;;5077802;28;20029;-71
2021/11/06 08:31:55;;;;;;;16.83;12.25;;;3.70;88.10;;;;;;5078095;28;20031;-71
2021/11/06 08:34:21;;;;;;;15.63;11.07;;;3.80;88.10;;;;;;5078275;28;20036;-71
2021/11/06 08:36:46;;;;;;;19.15;12.52;;;3.90;88.10;;;;;;5078100;28;20570;-71
2021/11/06 08:39:14;;;;;;;17.58;11.25;;;4.00;88.20;;;;;;5077755;28;20438;-71
2021/11/06 08:41:40;;;;;;;17.33;12.23;;;4.10;88.20;;;;;;5078304;28;20442;-71
2021/11/06 08:44:06;;;;;;;16.00;11.68;;;4.10;88.30;;;;;;5077826;28;20020;-71
2021/11/06 08:46:32;;;;;;;16.27;12.07;;;4.30;88.40;;;;;;5078126;28;20016;-71
2021/11/06 08:48:57;;;;;;;16.40;11.68;;;4.40;88.50;;;;;;5077965;28;20123;-71
2021/11/06 08:51:23;;;;;;;15.38;12.20;;;4.50;88.50;;;;;;5077357;28;20035;-71
2021/11/06 08:53:49;;;;;;;17.27;11.70;;;4.60;88.40;;;;;;5078044;28;20029;-71
2021/11/06 08:56:15;;;;;;;18.27;12.65;;;4.70;88.40;;;;;;5077518;28;20035;-71
2021/11/06 08:58:41;;;;;;;17.70;13.40;;;4.80;88.40;;;;;;5077673;28;20027;-71
2021/11/06 09:01:07;;;;;;;18.38;13.07;;;4.90;88.40;;;;;;5076974;28;20550;-71
2021/11/06 09:03:33;;;;;;;16.67;13.82;;;5.00;88.40;;;;;;5077343;28;20032;-71
2021/11/06 09:05:59;;;;;;;19.90;13.75;;;5.20;88.60;;;;;;5076479;28;20415;-71
2021/11/06 09:08:28;;;;;;;17.95;12.25;;;5.30;88.70;;;;;;5077824;28;20426;-71
2021/11/06 09:10:56;;;;;;;16.23;11.82;;;5.50;88.80;;;;;;5076793;28;20023;-71
2021/11/06 09:13:25;;;;;;;18.38;11.63;;;5.70;88.90;;;;;;5077095;28;20505;-71
2021/11/06 09:15:51;;;;;;;14.40;11.32;;;5.80;88.90;;;;;;5077202;28;20028;-71
2021/11/06 09:18:17;;;;;;;14.20;10.50;;;6.00;88.90;;;;;;5077477;28;20025;-71
2021/11/06 09:20:43;;;;;;;14.20;10.45;;;6.10;88.90;;;;;;5077564;28;20028;-71
2021/11/06 09:23:09;;;;;;;14.88;10.68;;;6.20;88.80;;;;;;5077085;28;20024;-71
2021/11/06 09:25:35;;;;;;;33.95;22.80;;;6.30;88.70;;;;;;5077260;28;20028;-71
2021/11/06 09:28:01;;;;;;;27.63;18.42;;;6.50;88.80;;;;;;5077105;28;20073;-71
2021/11/06 09:30:27;;;;;;;17.85;12.73;;;6.60;88.90;;;;;;5075849;28;20047;-71
2021/11/06 09:32:53;;;;;;;15.45;11.50;;;6.70;88.80;;;;;;5074872;28;20040;-71
2021/11/06 09:35:19;;;;;;;19.08;11.90;;;6.90;88.80;;;;;;5077454;28;20017;-71
2021/11/06 09:37:45;;;;;;;13.82;9.93;;;7.10;88.90;;;;;;5077220;28;20039;-71
2021/11/06 09:40:11;;;;;;;15.18;10.70;;;7.30;88.80;;;;;;5076955;28;20075;-71
2021/11/06 09:42:39;;;;;;;14.70;9.30;;;7.40;88.40;;;;;;5077178;28;20039;-71
2021/11/06 09:45:06;;;;;;;12.93;8.73;;;7.50;88.00;;;;;;5077021;28;20171;-71
2021/11/06 09:47:32;;;;;;;17.15;9.98;;;7.70;88.00;;;;;;5076973;28;20031;-71
2021/11/06 09:49:58;;;;;;;13.75;9.25;;;7.70;87.60;;;;;;5069651;28;20028;-71
2021/11/06 09:52:24;;;;;;;11.32;8.07;;;7.70;87.00;;;;;;5071499;28;20025;-71
2021/11/06 09:54:50;;;;;;;13.40;9.50;;;7.90;87.30;;;;;;5075996;28;20100;-71
2021/11/06 09:57:16;;;;;;;15.23;9.88;;;8.30;88.70;;;;;;5075875;28;20048;-71
2021/11/06 09:59:42;;;;;;;14.18;10.10;;;9.00;90.10;;;;;;5075651;28;20043;-71
2021/11/06 10:02:08;;;;;;;16.55;11.35;;;9.80;90.00;;;;;;5075408;28;20495;-71
2021/11/06 10:04:34;;;;;;;13.80;10.02;;;10.40;88.90;;;;;;5076708;28;20116;-71
2021/11/06 10:07:15;;;;;;;12.93;9.93;;;11.10;88.50;;;;;;5076804;28;20052;-71
2021/11/06 10:09:41;;;;;;;21.50;15.90;;;12.00;88.00;;;;;;5076525;28;20044;-71
2021/11/06 10:12:07;;;;;;;20.45;14.25;;;12.70;86.80;;;;;;5075760;28;20031;-71
2021/11/06 10:14:34;;;;;;;16.83;13.02;;;13.00;84.10;;;;;;5076698;28;20055;-71
2021/11/06 10:17:01;;;;;;;16.35;11.77;;;13.00;82.80;;;;;;5078184;28;20033;-71
2021/11/06 10:19:40;;;;;;;14.60;11.52;;;12.80;81.90;;;;;;5080120;28;20084;-71
2021/11/06 10:22:18;;;;;;;14.88;11.02;;;12.50;81.70;;;;;;5078916;28;20676;-71
2021/11/06 10:24:47;;;;;;;17.83;11.85;;;12.20;82.10;;;;;;5079313;28;20107;-71
2021/11/06 10:27:33;;;;;;;15.88;11.40;;;12.20;83.30;;;;;;5080590;28;20025;-71
2021/11/06 10:30:11;;;;;;;14.10;11.48;;;12.40;84.10;;;;;;5080049;28;20154;-71
2021/11/06 10:32:39;;;;;;;11.88;8.88;;;12.80;84.00;;;;;;5080173;28;20036;-71
2021/11/06 10:35:17;;;;;;;13.65;6.60;;;13.10;81.60;;;;;;5080256;28;20107;-71
2021/11/06 10:37:45;;;;;;;10.93;6.45;;;13.20;77.10;;;;;;5080824;28;20037;-71
2021/11/06 10:40:11;;;;;;;8.30;4.88;;;13.10;77.00;;;;;;5080684;28;20031;-71
2021/11/06 10:42:49;;;;;;;8.27;4.72;;;13.00;75.30;;;;;;5080088;28;20090;-71
2021/11/06 10:45:16;;;;;;;7.60;4.88;;;12.90;77.30;;;;;;5080264;28;20029;-71
2021/11/06 10:47:50;;;;;;;8.13;4.82;;;12.90;78.50;;;;;;5080431;28;20032;-71
2021/11/06 10:50:35;;;;;;;7.88;5.18;;;12.80;79.40;;;;;;5078680;28;20035;-71
2021/11/06 10:53:00;;;;;;;7.47;5.00;;;12.90;79.40;;;;;;5079213;28;20094;-71
2021/11/06 10:55:35;;;;;;;9.65;5.10;;;13.00;76.40;;;;;;5079727;28;20032;-71
2021/11/06 10:58:26;;;;;;;7.55;4.70;;;13.10;76.10;;;;;;5067665;28;20120;-70
2021/11/06 11:01:01;;;;;;;7.55;4.50;;;13.00;74.30;;;;;;5079542;28;20040;-71
2021/11/06 11:03:33;;;;;;;7.55;4.72;;;12.90;76.30;;;;;;5079949;28;20032;-71
2021/11/06 11:06:00;;;;;;;8.20;3.90;;;12.90;75.60;;;;;;5079751;28;20368;-71
2021/11/06 11:08:28;;;;;;;7.05;4.30;;;12.90;75.10;;;;;;5079404;28;20020;-71
2021/11/06 11:11:07;;;;;;;9.00;4.72;;;12.90;75.30;;;;;;5079799;28;20048;-70
2021/11/06 11:13:33;;;;;;;7.82;4.93;;;12.90;76.10;;;;;;5079522;28;20562;-71
2021/11/06 11:16:14;;;;;;;12.80;7.88;;;13.10;78.10;;;;;;5079861;28;20078;-70
2021/11/06 11:18:40;;;;;;;9.23;4.45;;;13.50;78.50;;;;;;5077559;28;20020;-70
2021/11/06 11:21:19;;;;;;;10.43;4.47;;;14.10;77.20;;;;;;5079959;28;20025;-71
2021/11/06 11:23:52;;;;;;;6.90;3.63;;;14.50;73.20;;;;;;5077599;28;20029;-70
2021/11/06 11:26:22;;;;;;;7.15;3.58;;;14.60;73.00;;;;;;5076739;28;20174;-70
2021/11/06 11:28:49;;;;;;;6.65;4.00;;;14.60;72.20;;;;;;5078416;28;20582;-70
2021/11/06 11:31:16;;;;;;;6.78;4.05;;;14.40;73.40;;;;;;5080090;28;20036;-71
2021/11/06 11:33:43;;;;;;;5.70;3.70;;;14.30;74.50;;;;;;5076342;28;20037;-70
2021/11/06 11:36:11;;;;;;;6.13;3.50;;;14.20;74.60;;;;;;5079664;28;20045;-70
2021/11/06 11:38:39;;;;;;;6.05;3.78;;;14.10;74.90;;;;;;5076676;28;20090;-71
2021/11/06 11:41:36;;;;;;;7.47;3.00;;;14.00;75.20;;;;;;5079540;28;20093;-71
2021/11/06 11:44:21;;;;;;;8.88;4.80;;;13.90;75.00;;;;;;5067815;28;20025;-71
2021/11/06 11:46:53;;;;;;;6.10;3.95;;;13.90;75.00;;;;;;5079079;28;20027;-71
2021/11/06 11:49:27;;;;;;;8.18;3.92;;;13.80;75.80;;;;;;5079358;28;20112;-71
2021/11/06 11:51:53;;;;;;;7.40;4.00;;;13.80;74.80;;;;;;5077732;28;20513;-71
2021/11/06 11:54:19;;;;;;;9.70;4.32;;;13.70;73.40;;;;;;5076266;28;20111;-71
2021/11/06 11:56:45;;;;;;;12.05;4.53;;;13.70;73.20;;;;;;5078008;28;20028;-71
2021/11/06 11:59:32;;;;;;;11.57;4.13;;;13.70;74.30;;;;;;5078756;28;20068;-70
2021/11/06 12:02:25;;;;;;;5.60;3.53;;;13.80;73.50;;;;;;5074169;28;20027;-71
2021/11/06 12:05:28;;;;;;;6.80;3.45;;;13.90;72.70;;;;;;5076279;28;20036;-70
2021/11/06 12:08:12;;;;;;;6.15;3.60;;;14.00;71.60;;;;;;5073175;28;20055;-70
2021/11/06 12:11:00;;;;;;;6.82;3.53;;;14.00;70.50;;;;;;5078177;28;20556;-70
2021/11/06 12:13:26;;;;;;;6.45;4.15;;;13.90;71.60;;;;;;5078768;28;20020;-70
2021/11/06 12:16:11;;;;;;;8.73;4.47;;;13.90;69.40;;;;;;5078673;28;20032;-70
2021/11/06 12:18:49;;;;;;;12.45;5.20;;;13.80;70.80;;;;;;5078008;28;20027;-71
2021/11/06 12:21:22;;;;;;;7.63;4.00;;;13.80;71.30;;;;;;5076681;28;20029;-71
2021/11/06 12:24:11;;;;;;;7.50;4.00;;;13.70;70.10;;;;;;5078063;28;20021;-71
2021/11/06 12:27:04;;;;;;;7.65;5.00;;;13.70;70.70;;;;;;5069235;28;20039;-70
2021/11/06 12:29:37;;;;;;;7.55;4.32;;;13.70;72.50;;;;;;5072840;28;20020;-70
2021/11/06 12:32:13;;;;;;;8.20;4.25;;;13.70;72.50;;;;;;5077998;28;20028;-70
2021/11/06 12:34:46;;;;;;;7.40;4.45;;;13.80;72.80;;;;;;5078023;28;20030;-71
2021/11/06 12:37:41;;;;;;;8.98;4.00;;;13.90;73.80;;;;;;5077713;28;20060;-71
2021/11/06 12:40:17;;;;;;;8.15;3.85;;;14.20;73.10;;;;;;5077187;28;20028;-72
2021/11/06 12:43:01;;;;;;;5.50;3.20;;;14.40;72.50;;;;;;5080467;28;20033;-71
2021/11/06 12:45:28;;;;;;;6.22;2.95;;;14.50;70.30;;;;;;5078090;28;20580;-71